createdAt,value
2023-01-19T00:01:28.951Z,97523.09
2023-01-19T00:03:55.560Z,97522.44
2023-01-19T00:06:22.170Z,97522.81
2023-01-19T00:08:50.224Z,97522.69
2023-01-19T00:11:20.478Z,97520.13
2023-01-19T00:13:50.589Z,97532.94
2023-01-19T00:16:18.938Z,97533.38
2023-01-19T00:18:46.123Z,97535.22
2023-01-19T00:21:14.751Z,97531.47
2023-01-19T00:23:41.281Z,97536.84
2023-01-19T00:26:08.652Z,97536.84
2023-01-19T00:28:35.147Z,97547.47
2023-01-19T00:31:01.615Z,97543.59
2023-01-19T00:33:28.286Z,97536.84
2023-01-19T00:35:57.645Z,97542.78
2023-01-19T00:38:24.237Z,97545.22
2023-01-19T00:40:50.808Z,97541.28
2023-01-19T00:43:17.300Z,97545.47
2023-01-19T00:45:45.324Z,97540.34
2023-01-19T00:48:11.836Z,97544.06
2023-01-19T00:50:38.385Z,97545.34
2023-01-19T00:53:04.956Z,97542.22
2023-01-19T00:55:33.486Z,97544.81
2023-01-19T00:58:00.003Z,97547.63
2023-01-19T01:00:26.740Z,97549.88
2023-01-19T01:02:54.166Z,97559.66
2023-01-19T01:05:21.128Z,97560.28
2023-01-19T01:10:22.999Z,97574.38
2023-01-19T01:12:54.838Z,97570.06
2023-01-19T01:15:26.942Z,97570.16
2023-01-19T01:20:25.267Z,97578.44
2023-01-19T01:22:53.754Z,97577.91
2023-01-19T01:25:22.715Z,97579.50
2023-01-19T01:30:16.479Z,97583.84
2023-01-19T01:32:43.447Z,97587.19
2023-01-19T01:35:11.323Z,97594.47
2023-01-19T01:37:38.575Z,97593.75
2023-01-19T01:40:06.521Z,97597.13
2023-01-19T01:42:34.133Z,97590.75
2023-01-19T01:45:06.180Z,97592.69
2023-01-19T01:47:46.225Z,97596.84
2023-01-19T01:50:27.910Z,97593.50
2023-01-19T01:55:30.531Z,97601.03
2023-01-19T01:58:01.281Z,97599.09
2023-01-19T02:00:53.681Z,97604.81
2023-01-19T02:03:23.583Z,97608.53
2023-01-19T02:05:51.961Z,97605.25
2023-01-19T02:09:03.808Z,97604.66
2023-01-19T02:11:50.540Z,97605.78
2023-01-19T02:14:17.101Z,97595.63
2023-01-19T02:16:46.540Z,97604.47
2023-01-19T02:19:18.037Z,97599.63
2023-01-19T02:21:51.642Z,97607.81
2023-01-19T02:24:18.831Z,97604.63
2023-01-19T02:26:47.875Z,97602.78
2023-01-19T02:29:21.038Z,97606.16
2023-01-19T02:31:50.953Z,97607.72
2023-01-19T02:34:19.991Z,97601.69
2023-01-19T02:39:53.067Z,97599.13
2023-01-19T02:42:27.745Z,97596.47
2023-01-19T02:44:56.685Z,97598.75
2023-01-19T02:47:24.363Z,97604.06
2023-01-19T02:50:32.871Z,97595.94
2023-01-19T02:53:20.466Z,97598.03
2023-01-19T02:56:04.829Z,97598.72
2023-01-19T02:58:42.029Z,97598.72
2023-01-19T03:01:21.566Z,97596.91
2023-01-19T03:03:58.287Z,97601.94
2023-01-19T03:06:40.958Z,97604.34
2023-01-19T03:09:17.345Z,97602.19
2023-01-19T03:11:52.295Z,97608.38
2023-01-19T03:14:25.134Z,97619.06
2023-01-19T03:16:59.314Z,97613.94
2023-01-19T03:19:34.182Z,97615.94
2023-01-19T03:22:05.376Z,97623.84
2023-01-19T03:24:37.133Z,97626.22
2023-01-19T03:27:11.069Z,97627.66
2023-01-19T03:29:41.941Z,97634.91
2023-01-19T03:32:14.489Z,97633.63
2023-01-19T03:34:42.558Z,97629.94
2023-01-19T03:37:11.391Z,97639.25
2023-01-19T03:42:08.713Z,97642.00
2023-01-19T03:49:32.427Z,97652.28
2023-01-19T03:54:31.852Z,97648.53
2023-01-19T03:56:59.026Z,97652.19
2023-01-19T03:59:25.538Z,97650.72
2023-01-19T04:04:18.716Z,97649.25
2023-01-19T04:09:11.940Z,97663.81
2023-01-19T04:11:38.404Z,97657.72
2023-01-19T04:14:05.396Z,97664.06
2023-01-19T04:16:32.571Z,97665.31
2023-01-19T04:18:59.056Z,97673.97
2023-01-19T04:21:25.778Z,97669.94
2023-01-19T04:23:53.203Z,97676.50
2023-01-19T04:26:20.332Z,97670.56
2023-01-19T04:28:46.887Z,97661.31
2023-01-19T04:31:14.446Z,97662.09
2023-01-19T04:33:41.117Z,97666.09
2023-01-19T04:36:08.547Z,97666.38
2023-01-19T04:38:35.481Z,97664.13
2023-01-19T04:41:02.075Z,97660.50
2023-01-19T04:43:28.739Z,97656.06
2023-01-19T04:48:21.978Z,97659.09
2023-01-19T04:50:51.396Z,97669.66
2023-01-19T04:53:18.481Z,97669.66
2023-01-19T04:55:45.063Z,97670.63
2023-01-19T04:58:11.597Z,97664.31
2023-01-19T05:00:40.804Z,97673.75
2023-01-19T05:03:07.466Z,97670.19
2023-01-19T05:05:34.252Z,97671.69
2023-01-19T05:08:00.854Z,97674.28
2023-01-19T05:10:27.597Z,97676.84
2023-01-19T05:15:21.434Z,97674.53
2023-01-19T05:17:48.199Z,97672.59
2023-01-19T05:20:16.419Z,97671.75
2023-01-19T05:22:48.509Z,97670.75
2023-01-19T05:25:15.150Z,97678.72
2023-01-19T05:27:44.907Z,97676.63
2023-01-19T05:30:13.517Z,97682.22
2023-01-19T05:32:40.822Z,97683.22
2023-01-19T05:35:08.561Z,97677.25
2023-01-19T05:37:37.211Z,97683.50
2023-01-19T05:40:04.263Z,97686.63
2023-01-19T05:42:32.678Z,97674.78
2023-01-19T05:44:59.520Z,97679.09
2023-01-19T05:47:26.233Z,97688.69
2023-01-19T05:49:52.942Z,97686.63
2023-01-19T05:52:19.825Z,97690.91
2023-01-19T05:54:46.578Z,97692.94
2023-01-19T05:57:13.401Z,97696.31
2023-01-19T05:59:41.540Z,97694.91
2023-01-19T06:02:09.184Z,97709.53
2023-01-19T06:04:36.076Z,97712.41
2023-01-19T06:07:03.048Z,97706.00
2023-01-19T06:09:33.967Z,97705.69
2023-01-19T06:12:00.723Z,97708.78
2023-01-19T06:14:27.636Z,97697.53
2023-01-19T06:19:24.856Z,97701.72
2023-01-19T06:21:52.508Z,97701.88
2023-01-19T06:24:19.959Z,97699.94
2023-01-19T06:26:49.557Z,97706.97
2023-01-19T06:29:16.298Z,97699.88
2023-01-19T06:31:45.919Z,97697.63
2023-01-19T06:34:12.825Z,97700.94
2023-01-19T06:36:39.599Z,97705.44
2023-01-19T06:39:06.727Z,97707.84
2023-01-19T06:41:34.701Z,97709.59
2023-01-19T06:44:02.122Z,97716.66
2023-01-19T06:46:29.858Z,97722.22
2023-01-19T06:48:56.927Z,97722.88
2023-01-19T06:51:23.939Z,97728.91
2023-01-19T06:53:50.667Z,97729.00
2023-01-19T06:56:17.434Z,97732.06
2023-01-19T07:01:11.447Z,97734.88
2023-01-19T07:06:06.852Z,97740.34
2023-01-19T07:11:24.857Z,97736.19
2023-01-19T07:13:56.044Z,97743.59
2023-01-19T07:16:26.166Z,97743.59
2023-01-19T07:18:57.092Z,97748.31
2023-01-19T07:21:23.987Z,97747.66
2023-01-19T07:26:25.011Z,97740.28
2023-01-19T07:28:52.603Z,97747.16
2023-01-19T07:31:20.190Z,97746.47
2023-01-19T07:33:47.575Z,97745.84
2023-01-19T07:36:14.647Z,97747.59
2023-01-19T07:38:41.414Z,97745.66
2023-01-19T07:41:12.795Z,97746.47
2023-01-19T07:43:39.754Z,97752.53
2023-01-19T07:48:35.697Z,97757.78
2023-01-19T07:51:12.540Z,97751.50
2023-01-19T07:53:48.456Z,97754.22
2023-01-19T07:56:18.552Z,97763.66
2023-01-19T07:58:45.491Z,97766.72
2023-01-19T08:01:16.104Z,97762.75
2023-01-19T08:03:43.359Z,97766.59
2023-01-19T08:06:44.403Z,97774.69
2023-01-19T08:09:12.104Z,97774.53
2023-01-19T08:11:39.011Z,97773.84
2023-01-19T08:14:09.173Z,97777.19
2023-01-19T08:29:34.012Z,97792.72
2023-01-19T08:32:03.579Z,97790.31
2023-01-19T08:34:31.184Z,97786.66
2023-01-19T08:36:58.453Z,97787.41
2023-01-19T08:39:25.522Z,97778.97
2023-01-19T08:41:52.590Z,97797.81
2023-01-19T08:44:19.640Z,97795.63
2023-01-19T08:46:47.287Z,97800.63
2023-01-19T08:51:46.559Z,97810.13
2023-01-19T08:56:40.518Z,97806.69
2023-01-19T08:59:10.865Z,97812.22
2023-01-19T09:01:39.110Z,97810.63
2023-01-19T09:04:09.254Z,97822.22
2023-01-19T09:06:36.112Z,97829.13
2023-01-19T09:09:02.929Z,97822.50
2023-01-19T09:11:30.870Z,97821.97
2023-01-19T09:16:27.405Z,97836.50
2023-01-19T09:18:54.202Z,97826.78
2023-01-19T09:21:21.330Z,97832.50
2023-01-19T09:23:49.257Z,97829.31
2023-01-19T09:28:43.312Z,97829.53
2023-01-19T09:33:36.820Z,97832.56
2023-01-19T09:38:34.546Z,97829.16
2023-01-19T09:41:01.518Z,97826.00
2023-01-19T09:43:50.709Z,97832.41
2023-01-19T09:46:44.111Z,97832.00
2023-01-19T09:49:23.420Z,97827.97
2023-01-19T09:51:51.504Z,97825.25
2023-01-19T09:54:24.033Z,97839.34
2023-01-19T09:56:52.896Z,97838.94
2023-01-19T09:59:30.935Z,97834.59
2023-01-19T10:02:06.099Z,97840.00
2023-01-19T10:07:26.254Z,97836.34
2023-01-19T10:10:28.805Z,97833.97
2023-01-19T10:12:55.484Z,97839.44
2023-01-19T10:15:37.627Z,97825.03
2023-01-19T10:18:17.324Z,97827.03
2023-01-19T10:24:06.654Z,97828.09
2023-01-19T10:26:44.622Z,97822.44
2023-01-19T10:29:21.179Z,97818.81
2023-01-19T10:31:51.920Z,97826.06
2023-01-19T10:34:23.675Z,97830.97
2023-01-19T10:36:58.910Z,97828.75
2023-01-19T10:39:28.212Z,97829.69
2023-01-19T10:41:55.334Z,97836.63
2023-01-19T10:44:28.075Z,97839.91
2023-01-19T10:49:44.605Z,97834.22
2023-01-19T10:52:41.739Z,97831.47
2023-01-19T10:55:36.299Z,97829.63
2023-01-19T11:00:41.689Z,97833.25
2023-01-19T11:03:24.984Z,97830.34
2023-01-19T11:05:51.911Z,97829.34
2023-01-19T11:08:30.107Z,97827.75
2023-01-19T11:11:04.542Z,97825.19
2023-01-19T11:13:32.566Z,97815.97
2023-01-19T11:18:52.617Z,97814.78
2023-01-19T11:21:27.093Z,97816.03
2023-01-19T11:23:58.969Z,97811.03
2023-01-19T11:26:31.359Z,97804.56
2023-01-19T11:28:59.844Z,97801.03
2023-01-19T11:31:29.562Z,97800.03
2023-01-19T11:34:04.970Z,97805.63
2023-01-19T11:36:34.571Z,97802.72
2023-01-19T11:39:24.327Z,97805.53
2023-01-19T11:41:59.712Z,97801.16
2023-01-19T11:44:55.802Z,97794.19
2023-01-19T11:47:28.236Z,97801.19
2023-01-19T11:50:02.868Z,97799.25
2023-01-19T11:52:48.119Z,97800.41
2023-01-19T11:55:23.882Z,97797.53
2023-01-19T11:57:54.514Z,97796.53
2023-01-19T12:00:36.395Z,97796.53
2023-01-19T12:03:15.798Z,97793.56
2023-01-19T12:05:50.398Z,97794.34
2023-01-19T12:08:25.441Z,97791.78
2023-01-19T12:10:54.356Z,97792.53
2023-01-19T12:13:24.313Z,97793.75
2023-01-19T12:16:06.403Z,97801.88
2023-01-19T12:21:25.429Z,97794.13
2023-01-19T12:24:16.578Z,97797.06
2023-01-19T12:26:55.005Z,97792.09
2023-01-19T12:29:24.701Z,97791.25
2023-01-19T12:32:21.448Z,97793.88
2023-01-19T12:34:55.877Z,97797.00
2023-01-19T12:37:40.608Z,97792.09
2023-01-19T12:40:39.890Z,97798.44
2023-01-19T12:43:06.683Z,97794.34
2023-01-19T12:45:36.055Z,97797.72
2023-01-19T12:48:04.382Z,97797.09
2023-01-19T12:50:38.628Z,97795.69
2023-01-19T12:53:20.598Z,97789.78
2023-01-19T12:55:59.896Z,97789.41
2023-01-19T12:58:27.494Z,97793.19
2023-01-19T13:01:20.988Z,97795.97
2023-01-19T13:04:27.244Z,97790.44
2023-01-19T13:09:34.787Z,97781.13
2023-01-19T13:14:51.122Z,97780.19
2023-01-19T13:17:34.022Z,97787.31
2023-01-19T13:20:06.059Z,97779.19
2023-01-19T13:22:50.634Z,97781.56
2023-01-19T13:25:48.798Z,97778.78
2023-01-19T13:28:20.556Z,97774.03
2023-01-19T13:30:59.340Z,97773.63
2023-01-19T13:33:30.257Z,97777.59
2023-01-19T13:35:59.110Z,97780.38
2023-01-19T13:38:27.851Z,97776.41
2023-01-19T13:41:00.134Z,97780.56
2023-01-19T13:43:37.129Z,97781.75
2023-01-19T13:46:04.610Z,97780.75
2023-01-19T13:48:32.688Z,97778.00
2023-01-19T13:53:35.618Z,97786.34
2023-01-19T13:56:20.864Z,97783.16
2023-01-19T13:59:00.954Z,97794.19
2023-01-19T14:01:29.335Z,97794.03
2023-01-19T14:03:57.498Z,97787.69
2023-01-19T14:06:40.722Z,97793.66
2023-01-19T14:09:39.778Z,97796.66
2023-01-19T14:12:15.825Z,97795.06
2023-01-19T14:14:44.122Z,97796.81
2023-01-19T14:17:43.147Z,97799.16
2023-01-19T14:20:30.164Z,97796.00
2023-01-19T14:22:57.429Z,97801.00
2023-01-19T14:25:33.540Z,97803.56
2023-01-19T14:28:29.289Z,97799.41
2023-01-19T14:31:17.764Z,97798.63
2023-01-19T14:33:47.220Z,97798.03
2023-01-19T14:36:15.606Z,97795.84
2023-01-19T14:38:48.475Z,97800.00
2023-01-19T14:41:35.988Z,97802.22
2023-01-19T14:44:17.709Z,97798.25
2023-01-19T14:46:48.055Z,97804.41
2023-01-19T14:49:27.539Z,97800.00
2023-01-19T14:51:56.048Z,97809.94
2023-01-19T14:54:38.440Z,97801.78
2023-01-19T14:57:06.076Z,97796.44
2023-01-19T15:02:00.067Z,97806.75
2023-01-19T15:04:27.148Z,97798.22
2023-01-19T15:19:17.809Z,97811.25
2023-01-19T15:21:47.160Z,97812.78
2023-01-19T15:24:17.571Z,97808.97
2023-01-19T15:26:45.251Z,97819.69
2023-01-19T15:31:50.776Z,97813.13
2023-01-19T15:36:45.080Z,97811.84
2023-01-19T15:41:40.380Z,97815.44
2023-01-19T15:52:19.173Z,97816.00
2023-01-19T15:54:46.013Z,97815.03
2023-01-19T15:57:15.062Z,97816.22
2023-01-19T15:59:41.940Z,97814.22
2023-01-19T16:04:36.316Z,97826.28
2023-01-19T16:07:03.348Z,97826.13
2023-01-19T16:09:30.043Z,97818.84
2023-01-19T16:11:59.335Z,97824.75
2023-01-19T16:14:28.651Z,97816.06
2023-01-19T16:16:55.747Z,97810.28
2023-01-19T16:19:23.018Z,97816.84
2023-01-19T16:21:49.814Z,97823.22
2023-01-19T16:24:16.606Z,97817.47
2023-01-19T16:26:43.492Z,97818.69
2023-01-19T16:31:42.817Z,97822.47
2023-01-19T16:36:40.538Z,97829.16
2023-01-19T16:41:38.931Z,97829.41
2023-01-19T16:44:06.514Z,97827.03
2023-01-19T16:46:37.743Z,97829.00
2023-01-19T16:51:41.818Z,97833.50
2023-01-19T16:56:39.422Z,97830.47
2023-01-19T16:59:06.111Z,97835.88
2023-01-19T17:01:33.537Z,97841.41
2023-01-19T17:04:00.228Z,97832.94
2023-01-19T17:06:28.261Z,97829.56
2023-01-19T17:08:55.280Z,97829.56
2023-01-19T17:11:31.374Z,97842.50
2023-01-19T17:14:00.658Z,97839.94
2023-01-19T17:16:29.347Z,97848.19
2023-01-19T17:19:01.317Z,97846.38
2023-01-19T17:21:28.906Z,97848.78
2023-01-19T17:24:00.748Z,97848.00
2023-01-19T17:26:31.389Z,97845.66
2023-01-19T17:29:02.635Z,97842.72
2023-01-19T17:31:30.216Z,97845.66
2023-01-19T17:33:58.050Z,97851.19
2023-01-19T17:36:27.688Z,97846.44
2023-01-19T17:38:56.648Z,97852.19
2023-01-19T17:41:35.249Z,97859.19
2023-01-19T17:44:03.642Z,97858.41
2023-01-19T17:46:32.647Z,97852.91
2023-01-19T17:49:01.891Z,97858.25
2023-01-19T17:51:29.594Z,97856.13
2023-01-19T17:53:57.251Z,97856.75
2023-01-19T17:56:30.125Z,97869.06
2023-01-19T17:59:01.673Z,97861.31
2023-01-19T18:01:31.408Z,97867.50
2023-01-19T18:03:59.047Z,97867.34
2023-01-19T18:06:29.002Z,97874.94
2023-01-19T18:08:57.397Z,97872.13
2023-01-19T18:11:24.394Z,97876.50
2023-01-19T18:13:51.865Z,97876.72
2023-01-19T18:16:26.467Z,97863.69
2023-01-19T18:18:54.597Z,97876.50
2023-01-19T18:21:23.019Z,97874.56
2023-01-19T18:24:01.181Z,97869.06
2023-01-19T18:26:28.272Z,97867.69
2023-01-19T18:28:57.151Z,97866.69
2023-01-19T18:31:27.567Z,97865.84
2023-01-19T18:33:55.175Z,97873.97
2023-01-19T18:36:24.115Z,97882.06
2023-01-19T18:38:50.972Z,97874.56
2023-01-19T18:41:20.635Z,97872.22
2023-01-19T18:43:48.820Z,97879.34
2023-01-19T18:46:16.777Z,97876.22
2023-01-19T18:48:43.804Z,97878.97
2023-01-19T18:51:16.003Z,97875.19
2023-01-19T18:53:43.631Z,97884.06
2023-01-19T18:56:15.543Z,97878.56
2023-01-19T18:58:43.497Z,97883.72
2023-01-19T19:01:21.850Z,97881.72
2023-01-19T19:03:50.037Z,97881.94
2023-01-19T19:06:19.301Z,97884.28
2023-01-19T19:08:57.395Z,97888.50
2023-01-19T19:11:26.396Z,97891.16
2023-01-19T19:13:58.401Z,97885.59
2023-01-19T19:16:25.711Z,97895.38
2023-01-19T19:18:52.536Z,97893.41
2023-01-19T19:21:24.271Z,97897.56
2023-01-19T19:23:56.287Z,97890.97
2023-01-19T19:26:28.205Z,97884.22
2023-01-19T19:28:58.257Z,97891.63
2023-01-19T19:31:26.942Z,97889.22
2023-01-19T19:33:56.029Z,97894.69
2023-01-19T19:36:25.295Z,97891.31
2023-01-19T19:38:52.138Z,97896.28
2023-01-19T19:41:27.047Z,97888.97
2023-01-19T19:43:55.580Z,97901.34
2023-01-19T19:46:24.559Z,97899.69
2023-01-19T19:48:52.441Z,97897.97
2023-01-19T19:51:27.943Z,97895.16
2023-01-19T19:53:57.423Z,97896.19
2023-01-19T19:56:26.358Z,97897.72
2023-01-19T19:58:55.271Z,97893.59
2023-01-19T20:01:27.602Z,97899.09
2023-01-19T20:04:03.138Z,97898.13
2023-01-19T20:06:29.879Z,97900.69
2023-01-19T20:08:56.932Z,97900.06
2023-01-19T20:11:27.142Z,97900.06
2023-01-19T20:13:54.217Z,97902.00
2023-01-19T20:16:26.294Z,97903.59
2023-01-19T20:18:56.775Z,97903.88
2023-01-19T20:21:28.219Z,97909.69
2023-01-19T20:23:57.209Z,97908.03
2023-01-19T20:26:27.536Z,97909.63
2023-01-19T20:28:54.992Z,97908.56
2023-01-19T20:31:25.247Z,97904.81
2023-01-19T20:33:53.655Z,97903.97
2023-01-19T20:36:24.195Z,97908.59
2023-01-19T20:38:53.085Z,97910.94
2023-01-19T20:41:22.009Z,97914.25
2023-01-19T20:43:52.064Z,97913.06
2023-01-19T20:46:18.653Z,97916.19
2023-01-19T20:48:50.846Z,97922.94
2023-01-19T20:51:18.962Z,97913.28
2023-01-19T20:53:47.211Z,97919.22
2023-01-19T20:56:19.230Z,97917.84
2023-01-19T20:58:46.125Z,97923.66
2023-01-19T21:01:22.717Z,97926.06
2023-01-19T21:03:51.008Z,97928.00
2023-01-19T21:06:18.888Z,97927.84
2023-01-19T21:08:46.113Z,97930.06
2023-01-19T21:11:13.385Z,97927.28
2023-01-19T21:13:45.656Z,97941.53
2023-01-19T21:16:12.959Z,97931.06
2023-01-19T21:18:39.956Z,97935.25
2023-01-19T21:21:09.117Z,97939.66
2023-01-19T21:23:37.369Z,97950.41
2023-01-19T21:26:04.050Z,97940.75
2023-01-19T21:28:31.560Z,97945.00
2023-01-19T21:30:58.501Z,97945.22
2023-01-19T21:33:27.763Z,97947.31
2023-01-19T21:35:57.073Z,97945.00
2023-01-19T21:38:29.579Z,97943.84
2023-01-19T21:40:58.350Z,97944.75
2023-01-19T21:43:28.607Z,97950.47
2023-01-19T21:45:55.221Z,97950.28
2023-01-19T21:48:21.835Z,97948.78
2023-01-19T21:50:57.127Z,97953.50
2023-01-19T21:53:26.764Z,97954.50
2023-01-19T21:55:53.369Z,97959.31
2023-01-19T21:58:22.609Z,97959.31
2023-01-19T22:00:49.418Z,97957.44
2023-01-19T22:03:16.581Z,97957.94
2023-01-19T22:05:43.418Z,97961.50
2023-01-19T22:08:10.192Z,97959.63
2023-01-19T22:10:37.948Z,97960.06
2023-01-19T22:13:06.813Z,97973.22
2023-01-19T22:15:33.616Z,97964.53
2023-01-19T22:18:00.260Z,97970.66
2023-01-19T22:20:26.986Z,97962.31
2023-01-19T22:22:53.740Z,97969.78
2023-01-19T22:25:23.906Z,97966.00
2023-01-19T22:27:50.547Z,97974.13
2023-01-19T22:30:17.946Z,97976.94
2023-01-19T22:32:46.353Z,97970.03
2023-01-19T22:35:13.101Z,97966.41
2023-01-19T22:37:39.789Z,97970.50
2023-01-19T22:40:07.013Z,97968.91
2023-01-19T22:42:33.597Z,97972.72
2023-01-19T22:47:27.064Z,97969.94
2023-01-19T22:49:53.713Z,97972.22
2023-01-19T22:52:20.255Z,97973.13
2023-01-19T22:54:46.776Z,97969.50
2023-01-19T22:57:13.185Z,97967.88
2023-01-19T22:59:39.734Z,97966.03
2023-01-19T23:02:06.382Z,97969.69
2023-01-19T23:04:32.955Z,97968.97
2023-01-19T23:09:25.917Z,97970.53
2023-01-19T23:11:52.938Z,97973.19
2023-01-19T23:14:23.500Z,97969.25
2023-01-19T23:16:50.217Z,97974.19
2023-01-19T23:21:45.468Z,97973.78
2023-01-19T23:26:42.220Z,97972.56
2023-01-19T23:29:13.021Z,97973.38
2023-01-19T23:31:42.966Z,97970.41
2023-01-19T23:36:40.027Z,97972.06
2023-01-19T23:39:14.530Z,97971.34
2023-01-19T23:41:41.290Z,97976.50
2023-01-19T23:44:08.200Z,97976.53
2023-01-19T23:46:37.679Z,97980.91
2023-01-19T23:49:04.556Z,97984.13
2023-01-19T23:51:32.777Z,97983.59
2023-01-19T23:54:00.136Z,97994.00
2023-01-19T23:56:29.673Z,97993.97
2023-01-19T23:58:58.728Z,97996.53
